GW1480 Weather Reports


Display with metric or nautical units.
time (UTC)temp
F
wind
direction
speed
MPH
gust
MPH
rain 1hr
in
rain 24hr
in
rain mn
in
humidity
%
barometer
mb
20240523085305 64 221 0.0 0.0 0.00 0.00 0.00 91 1018.9
20240523084905 64 232 0.0 0.0 0.00 0.00 0.00 91 1018.9
20240523084404 64 209 0.0 0.0 0.00 0.00 0.00 91 1018.9
20240523084003 64 214 0.0 0.0 0.00 0.00 0.00 91 1018.9
20240523083203 65 159 0.0 0.0 0.00 0.00 0.00 91 1018.9
20240523082709 65 206 0.0 0.0 0.00 0.00 0.00 91 1018.9
20240523082206 65 183 0.0 0.0 0.00 0.00 0.00 91 1018.9
20240523081802 65 173 0.0 0.0 0.00 0.00 0.00 91 1018.6
20240523081306 65 213 0.0 0.0 0.00 0.00 0.00 91 1018.9
20240523080706 65 199 0.0 0.0 0.00 0.00 0.00 91 1018.6
20240523080203 65 267 0.0 0.0 0.00 0.00 0.00 91 1018.6
20240523075604 65 223 0.0 0.0 0.00 0.00 0.00 90 1018.9
20240523075109 65 189 0.0 0.0 0.00 0.00 0.00 91 1018.6
20240523074705 65 152 0.0 0.0 0.00 0.00 0.00 90 1018.9
20240523074204 65 198 0.0 0.0 0.00 0.00 0.00 91 1018.6
20240523073605 65 193 0.0 0.0 0.00 0.00 0.00 91 1018.9
20240523073109 65 220 0.0 0.0 0.00 0.00 0.00 91 1018.9
20240523072706 65 233 0.0 0.0 0.00 0.00 0.00 91 1018.9
20240523072004 65 269 0.0 0.0 0.00 0.00 0.00 91 1018.6
20240523071603 65 228 0.0 0.0 0.00 0.00 0.00 90 1018.6
20240523071106 65 225 0.0 0.0 0.00 0.00 0.00 90 1018.9
20240523070603 65 249 0.0 0.0 0.00 0.00 0.00 90 1018.9
20240523070103 65 223 0.0 0.0 0.00 0.00 0.00 90 1018.2
20240523065703 66 233 0.0 0.0 0.00 0.00 0.00 90 1018.2
20240523065203 66 239 0.0 0.0 0.00 0.00 0.00 90 1018.6
20240523064803 66 250 0.0 0.0 0.00 0.00 0.00 90 1018.6
20240523064307 66 231 0.0 0.0 0.00 0.00 0.00 89 1018.6
20240523063702 67 228 0.0 0.0 0.00 0.00 0.00 89 1017.9
20240523063203 67 228 0.0 0.0 0.00 0.00 0.00 89 1017.9
20240523062803 67 228 0.0 0.0 0.00 0.00 0.00 89 1017.9
20240523062308 68 256 0.0 0.0 0.00 0.00 0.00 89 1018.2
20240523061905 68 224 0.0 0.0 0.00 0.00 0.00 88 1017.9
20240523061404 69 229 0.0 0.0 0.00 0.00 0.00 86 1017.9
20240523060803 69 235 0.0 0.0 0.00 0.00 0.00 86 1017.6
20240523060308 70 238 0.0 0.0 0.00 0.00 0.00 85 1017.9
20240523055906 70 242 0.0 0.0 0.00 0.00 0.00 83 1017.6
20240523055203 70 243 0.0 0.0 0.00 0.00 0.00 79 1017.6
20240523054506 70 183 0.0 0.0 0.00 0.00 0.00 77 1017.2
20240523054104 70 231 0.0 0.0 0.00 0.00 0.00 76 1017.6
20240523053610 70 205 0.0 0.0 0.00 0.00 0.00 76 1017.9
20240523053206 70 283 0.0 0.0 0.00 0.00 0.00 75 1017.9
20240523052607 70 193 1.0 3.0 0.00 0.00 0.00 75 1017.2
20240523052207 70 324 0.0 0.0 0.00 0.00 0.00 76 1017.6
20240523051706 70 227 0.0 0.0 0.00 0.00 0.00 77 1017.2
20240523051305 70 240 0.0 0.0 0.00 0.00 0.00 75 1017.2
20240523050803 70 70 2.0 3.0 0.00 0.00 0.00 77 1017.2
20240523050403 71 211 0.0 0.0 0.00 0.00 0.00 77 1017.2
20240523045604 71 183 0.0 0.0 0.00 0.00 0.00 75 1016.9
20240523044503 71 177 0.0 0.0 0.00 0.00 0.00 73 1016.9
20240523044006 72 279 0.0 0.0 0.00 0.00 0.00 73 1016.9
20240523043504 72 325 0.0 0.0 0.00 0.00 0.00 72 1016.9
20240523043006 72 177 0.0 0.0 0.00 0.00 0.00 72 1017.2
20240523042502 72 171 3.0 5.0 0.00 0.00 0.00 71 1017.2
20240523042003 72 297 2.0 5.0 0.00 0.00 0.00 72 1016.9
20240523041504 73 139 0.0 0.0 0.00 0.00 0.00 72 1017.2
20240523041007 73 199 0.0 0.0 0.00 0.00 0.00 71 1017.2
20240523040505 73 176 0.0 0.0 0.00 0.00 0.00 70 1017.6
20240523035703 74 177 0.0 0.0 0.00 0.00 0.00 68 1017.9
20240523035303 74 12 13.0 18.0 0.00 0.00 0.00 67 1017.9
20240523034803 74 350 5.0 5.0 0.00 0.00 0.00 66 1017.9
20240523034308 74 320 10.0 15.0 0.00 0.00 0.00 66 1018.2
20240523033805 75 290 1.0 3.0 0.00 0.00 0.00 65 1017.9
20240523033404 75 211 2.0 10.0 0.00 0.00 0.00 65 1017.9
20240523032805 75 186 7.0 10.0 0.00 0.00 0.00 65 1018.2
20240523032310 74 252 3.0 5.0 0.00 0.00 0.00 65 1018.2
20240523031906 74 277 0.0 3.0 0.00 0.00 0.00 67 1017.9
20240523031506 75 295 4.0 5.0 0.00 0.00 0.00 69 1017.9
20240523031005 74 219 3.0 5.0 0.00 0.00 0.00 70 1018.2
20240523030205 74 211 0.0 0.0 0.00 0.00 0.00 75 1018.2
20240523025514 74 277 0.0 0.0 0.00 0.00 0.00 72 1018.2
20240523025004 72 209 4.0 8.0 0.00 0.00 0.00 70 1018.2
20240523023905 71 258 0.0 0.0 0.00 0.00 0.00 75 1018.2
20240523023504 70 4 3.0 5.0 0.00 0.00 0.00 72 1018.2
20240523023008 70 212 0.0 0.0 0.00 0.00 0.00 89 1018.2
20240523022304 70 155 0.0 0.0 0.00 0.00 0.00 90 1018.6
20240523021810 70 160 0.0 0.0 0.00 0.00 0.00 90 1017.9
20240523021404 70 236 0.0 0.0 0.00 0.00 0.00 90 1018.2
20240523020907 70 91 0.0 0.0 0.00 0.00 0.00 90 1018.2
20240523020505 70 171 0.0 0.0 0.00 0.00 0.00 90 1018.2
20240523020005 71 215 0.0 0.0 0.00 0.00 0.00 90 1017.9
20240523015604 71 223 0.0 0.0 0.00 0.00 0.00 90 1017.9
20240523014806 71 246 0.0 0.0 0.00 0.00 0.00 90 1017.6
20240523014307 71 225 0.0 0.0 0.00 0.00 0.00 90 1017.2
20240523013611 72 240 0.0 0.0 0.00 0.00 0.00 90 1017.2
20240523013105 72 230 0.0 0.0 0.00 0.00 0.00 89 1016.9
20240523012303 72 241 0.0 0.0 0.00 0.00 0.00 89 1017.2
20240523011809 72 224 0.0 0.0 0.00 0.00 0.00 89 1016.9
20240523011408 73 218 0.0 0.0 0.00 0.00 0.00 89 1016.9
20240523011008 73 223 0.0 0.0 0.00 0.00 0.00 89 1016.5
20240523010305 73 210 0.0 0.0 0.00 0.00 0.00 89 1016.5
20240523005804 73 233 0.0 0.0 0.00 0.00 0.00 88 1016.2
20240523005308 73 176 0.0 0.0 0.00 0.00 0.00 88 1016.2
20240523004308 74 127 0.0 0.0 0.00 0.00 0.00 88 1015.9
20240523003706 74 242 0.0 0.0 0.00 0.00 0.00 89 1015.9
20240523003017 74 167 0.0 0.0 0.00 0.00 0.00 88 1016.2
20240523002306 75 110 0.0 0.0 0.00 0.00 0.00 89 1016.2
20240523001904 75 209 0.0 0.0 0.00 0.00 0.00 89 1016.2
20240523001208 75 251 0.0 0.0 0.00 0.00 0.00 89 1016.2
20240523000704 76 263 0.0 0.0 0.00 0.00 0.00 88 1015.9
20240523000104 76 224 0.0 0.0 0.00 0.00 0.00 88 1016.2
20240522235703 76 207 0.0 0.0 0.00 0.00 0.00 88 1015.9
20240522235208 76 218 0.0 0.0 0.00 0.00 0.00 88 1016.2
20240522234607 76 212 0.0 0.0 0.00 0.00 0.00 87 1015.5
20240522234003 77 219 0.0 0.0 0.00 0.00 0.00 87 1015.5
20240522233504 77 212 0.0 0.0 0.00 0.00 0.00 86 1015.5
20240522233007 77 178 0.0 0.0 0.00 0.00 0.00 86 1015.5
20240522232606 78 229 0.0 0.0 0.00 0.00 0.00 86 1015.9
20240522232104 78 220 0.0 0.0 0.00 0.00 0.00 85 1015.9
20240522231407 79 225 0.0 0.0 0.00 0.00 0.00 85 1015.5
20240522230703 79 224 0.0 0.0 0.00 0.00 0.00 83 1015.5
20240522230207 80 216 0.0 0.0 0.00 0.00 0.00 82 1015.5
20240522225303 80 222 0.0 0.0 0.00 0.00 0.00 82 1015.5
20240522224807 80 219 0.0 0.0 0.00 0.00 0.00 81 1015.5
20240522224406 80 223 0.0 0.0 0.00 0.00 0.00 81 1015.5
20240522223806 81 211 0.0 0.0 0.00 0.00 0.00 80 1015.5
20240522223008 81 214 0.0 0.0 0.00 0.00 0.00 80 1015.5
20240522222403 82 223 0.0 0.0 0.00 0.00 0.00 79 1015.2
20240522221903 82 230 0.0 0.0 0.00 0.00 0.00 78 1015.2
20240522221503 82 223 0.0 0.0 0.00 0.00 0.00 78 1015.5
20240522221007 82 221 0.0 0.0 0.00 0.00 0.00 78 1015.2
20240522220305 82 224 0.0 0.0 0.00 0.00 0.00 76 1015.5
20240522215803 82 230 0.0 0.0 0.00 0.00 0.00 75 1015.2
20240522215403 83 213 0.0 0.0 0.00 0.00 0.00 77 1015.5
20240522214903 83 211 0.0 0.0 0.00 0.00 0.00 77 1015.2
20240522214407 83 227 0.0 0.0 0.00 0.00 0.00 75 1015.2
20240522213606 84 202 0.0 0.0 0.00 0.00 0.00 76 1015.2
20240522213202 85 251 0.0 0.0 0.00 0.00 0.00 72 1015.2
20240522212706 85 213 0.0 0.0 0.00 0.00 0.00 66 1015.5
20240522212108 86 218 0.0 0.0 0.00 0.00 0.00 68 1015.5
20240522211705 86 197 0.0 0.0 0.00 0.00 0.00 64 1015.5
20240522211204 87 174 0.0 0.0 0.00 0.00 0.00 59 1015.5
20240522210604 87 180 1.0 3.0 0.00 0.00 0.00 55 1015.5
20240522210203 87 249 0.0 0.0 0.00 0.00 0.00 53 1015.2
20240522205705 88 352 2.0 5.0 0.00 0.00 0.00 56 1015.2
20240522205105 88 327 7.0 8.0 0.00 0.00 0.00 53 1015.5
20240522204704 88 86 1.0 3.0 0.00 0.00 0.00 52 1015.5
20240522204204 89 220 3.0 5.0 0.00 0.00 0.00 53 1015.9
20240522203804 89 320 6.0 8.0 0.00 0.00 0.00 52 1015.5
20240522203403 89 175 0.0 0.0 0.00 0.00 0.00 53 1015.5
20240522202903 89 51 0.0 0.0 0.00 0.00 0.00 50 1015.5
20240522202503 89 22 6.0 8.0 0.00 0.00 0.00 51 1015.5
20240522202004 88 242 0.0 3.0 0.00 0.00 0.00 57 1015.9
20240522201505 88 272 0.0 0.0 0.00 0.00 0.00 59 1015.5
20240522201004 86 8 1.0 3.0 0.00 0.00 0.00 55 1015.9
20240522200205 85 230 0.0 0.0 0.00 0.00 0.00 55 1015.9
20240522195508 84 221 0.0 0.0 0.00 0.00 0.00 56 1016.2
20240522195003 84 258 0.0 0.0 0.00 0.00 0.00 56 1016.2
20240522194306 84 189 0.0 0.0 0.00 0.00 0.00 59 1016.2
20240522193904 84 178 0.0 0.0 0.00 0.00 0.00 61 1016.2
20240522193504 85 197 0.0 0.0 0.00 0.00 0.00 61 1016.5
20240522193008 86 163 5.0 8.0 0.00 0.00 0.00 61 1016.9
20240522192406 87 215 0.0 0.0 0.00 0.00 0.00 70 1016.9
20240522191806 87 289 2.0 5.0 0.00 0.00 0.00 50 1016.5
20240522191403 87 197 1.0 3.0 0.00 0.00 0.00 60 1016.9
20240522190903 86 14 2.0 5.0 0.00 0.00 0.00 52 1016.9
20240522190407 86 213 0.0 0.0 0.00 0.00 0.00 57 1016.5
20240522185904 85 250 0.0 0.0 0.00 0.00 0.00 53 1016.2
20240522185404 85 28 4.0 8.0 0.00 0.00 0.00 53 1016.2
20240522184706 85 351 2.0 5.0 0.00 0.00 0.00 58 1016.5
20240522184305 85 215 0.0 0.0 0.00 0.00 0.00 60 1016.5
20240522183503 86 214 0.0 0.0 0.00 0.00 0.00 56 1016.9
20240522183004 86 289 0.0 3.0 0.00 0.00 0.00 52 1016.5
20240522182506 86 276 2.0 5.0 0.00 0.00 0.00 51 1016.2
20240522182005 87 218 0.0 0.0 0.00 0.00 0.00 49 1016.5
20240522181604 87 329 4.0 8.0 0.00 0.00 0.00 51 1017.2
20240522181107 87 342 2.0 3.0 0.00 0.00 0.00 47 1017.6
20240522180706 87 313 7.0 8.0 0.00 0.00 0.00 48 1017.2
20240522180305 87 348 5.0 8.0 0.00 0.00 0.00 49 1017.2
20240522175507 87 304 2.0 5.0 0.00 0.00 0.00 47 1017.2
20240522174906 86 67 3.0 5.0 0.00 0.00 0.00 48 1017.2
20240522173906 86 343 1.0 3.0 0.00 0.00 0.00 48 1017.2
20240522173404 86 260 2.0 5.0 0.00 0.00 0.00 49 1017.2
20240522172708 86 301 0.0 0.0 0.00 0.00 0.00 52 1017.2
20240522172003 86 313 2.0 5.0 0.00 0.00 0.00 56 1017.6
20240522171507 85 255 3.0 5.0 0.00 0.00 0.00 56 1017.6
20240522171104 85 31 2.0 3.0 0.00 0.00 0.00 54 1017.9
20240522170612 85 330 2.0 3.0 0.00 0.00 0.00 55 1017.9
20240522170007 85 137 4.0 8.0 0.00 0.00 0.00 55 1017.6
20240522165408 84 145 2.0 3.0 0.00 0.00 0.00 57 1017.6
20240522164905 84 39 8.0 8.0 0.00 0.00 0.00 57 1017.6
20240522164204 84 52 7.0 8.0 0.00 0.00 0.00 59 1017.9
20240522163506 84 230 0.0 3.0 0.00 0.00 0.00 58 1017.9
20240522163004 84 41 0.0 0.0 0.00 0.00 0.00 63 1018.2
20240522162004 84 56 4.0 8.0 0.00 0.00 0.00 59 1018.6
20240522161308 83 186 3.0 5.0 0.00 0.00 0.00 57 1018.6
20240522160804 84 17 0.0 3.0 0.00 0.00 0.00 59 1018.6
20240522160203 84 22 2.0 5.0 0.00 0.00 0.00 61 1018.6
20240522155802 84 89 0.0 0.0 0.00 0.00 0.00 62 1018.9
20240522155307 84 157 0.0 0.0 0.00 0.00 0.00 64 1018.9
20240522154904 84 292 2.0 5.0 0.00 0.00 0.00 61 1018.9
20240522154403 84 204 0.0 0.0 0.00 0.00 0.00 62 1018.9
20240522153604 83 317 1.0 3.0 0.00 0.00 0.00 61 1018.9
20240522153005 83 10 0.0 3.0 0.00 0.00 0.00 64 1018.9
20240522152603 83 288 2.0 3.0 0.00 0.00 0.00 64 1018.9
20240522152108 83 72 4.0 5.0 0.00 0.00 0.00 63 1018.9
20240522151609 83 140 0.0 0.0 0.00 0.00 0.00 62 1018.9
20240522151104 82 30 3.0 8.0 0.00 0.00 0.00 63 1018.9
20240522150105 82 225 3.0 5.0 0.00 0.00 0.00 62 1018.6
20240522145504 82 358 1.0 3.0 0.00 0.00 0.00 64 1018.6
20240522145006 82 124 0.0 3.0 0.00 0.00 0.00 63 1018.9
20240522144506 82 321 2.0 3.0 0.00 0.00 0.00 63 1018.6
20240522144004 82 193 0.0 0.0 0.00 0.00 0.00 63 1018.6
20240522143604 82 190 0.0 0.0 0.00 0.00 0.00 63 1018.6
20240522143203 82 304 5.0 8.0 0.00 0.00 0.00 63 1018.6
20240522142507 82 136 3.0 5.0 0.00 0.00 0.00 64 1018.9
20240522141506 82 358 0.0 0.0 0.00 0.00 0.00 64 1018.6
20240522141103 82 38 5.0 8.0 0.00 0.00 0.00 62 1018.6
20240522140612 82 230 1.0 3.0 0.00 0.00 0.00 61 1018.2
20240522140104 82 21 2.0 3.0 0.00 0.00 0.00 62 1018.2
20240522135704 82 28 3.0 5.0 0.00 0.00 0.00 61 1018.6
20240522134607 81 75 4.0 5.0 0.00 0.00 0.00 64 1018.6
20240522133903 81 307 1.0 3.0 0.00 0.00 0.00 65 1018.6
20240522133503 80 201 0.0 0.0 0.00 0.00 0.00 65 1018.2
20240522133004 80 200 1.0 3.0 0.00 0.00 0.00 66 1018.6
20240522132505 79 177 0.0 0.0 0.00 0.00 0.00 70 1018.6
20240522132103 79 71 0.0 0.0 0.00 0.00 0.00 69 1018.2
20240522131607 78 60 1.0 3.0 0.00 0.00 0.00 71 1018.2
20240522131203 78 333 2.0 5.0 0.00 0.00 0.00 69 1018.6
20240522130705 77 61 1.0 3.0 0.00 0.00 0.00 70 1018.2
20240522130209 77 97 3.0 5.0 0.00 0.00 0.00 73 1018.2
20240522125406 76 119 1.0 3.0 0.00 0.00 0.00 71 1018.2
20240522125006 75 133 1.0 3.0 0.00 0.00 0.00 73 1017.9
20240522124304 73 37 4.0 5.0 0.00 0.00 0.00 74 1017.9
20240522123302 71 91 2.0 3.0 0.00 0.00 0.00 77 1018.2
20240522122804 70 166 0.0 0.0 0.00 0.00 0.00 79 1017.9
20240522122403 69 21 2.0 5.0 0.00 0.00 0.00 80 1017.9
20240522121904 68 115 4.0 5.0 0.00 0.00 0.00 84 1018.2
20240522121406 68 82 1.0 3.0 0.00 0.00 0.00 86 1018.2
20240522120903 67 88 1.0 3.0 0.00 0.00 0.00 89 1018.2
20240522120406 66 133 0.0 0.0 0.00 0.00 0.00 89 1018.6
20240522115903 66 229 0.0 0.0 0.00 0.00 0.00 91 1018.2
20240522115407 65 78 1.0 3.0 0.00 0.00 0.00 93 1018.2
20240522114405 65 117 1.0 3.0 0.00 0.00 0.00 95 1018.2
20240522114002 64 130 0.0 3.0 0.00 0.00 0.00 95 1018.2
20240522113504 64 142 1.0 3.0 0.00 0.00 0.00 95 1018.6
20240522113007 64 148 1.0 3.0 0.00 0.00 0.00 95 1017.9
20240522112606 64 200 1.0 3.0 0.00 0.00 0.00 95 1018.2
20240522112206 64 137 2.0 3.0 0.00 0.00 0.00 95 1018.2
20240522111805 64 159 0.0 0.0 0.00 0.00 0.00 95 1017.9
20240522110805 64 132 0.0 0.0 0.00 0.00 0.00 95 1018.2
20240522110405 64 200 0.0 0.0 0.00 0.00 0.00 95 1018.2
20240522105903 64 168 0.0 0.0 0.00 0.00 0.00 95 1018.2
20240522105206 64 185 0.0 0.0 0.00 0.00 0.00 95 1018.2
20240522104703 64 178 0.0 0.0 0.00 0.00 0.00 95 1017.9
20240522104206 64 192 0.0 0.0 0.00 0.00 0.00 95 1017.9
20240522103504 64 182 0.0 0.0 0.00 0.00 0.00 95 1017.9
20240522103104 64 123 0.0 0.0 0.00 0.00 0.00 95 1017.9
20240522102603 64 159 0.0 0.0 0.00 0.00 0.00 95 1017.9
20240522102203 64 219 0.0 0.0 0.00 0.00 0.00 95 1017.6
20240522101703 64 203 0.0 0.0 0.00 0.00 0.00 95 1017.9
20240522101303 64 171 0.0 0.0 0.00 0.00 0.00 95 1017.9
20240522100806 64 184 1.0 3.0 0.00 0.00 0.00 95 1017.9
20240522100003 64 173 0.0 0.0 0.00 0.00 0.00 95 1017.9
20240522095506 64 167 0.0 0.0 0.00 0.00 0.00 95 1017.6
20240522095003 64 187 0.0 0.0 0.00 0.00 0.00 95 1017.6
20240522094603 64 179 0.0 0.0 0.00 0.00 0.00 95 1017.6
20240522093806 64 171 0.0 0.0 0.00 0.00 0.00 95 1017.9
20240522093202 64 183 0.0 0.0 0.00 0.00 0.00 95 1017.6
20240522092703 64 161 0.0 0.0 0.00 0.00 0.00 95 1017.2
20240522092301 64 198 0.0 0.0 0.00 0.00 0.00 95 1017.2
20240522091803 64 150 0.0 3.0 0.00 0.00 0.00 95 1017.2
20240522091403 64 146 0.0 3.0 0.00 0.00 0.00 95 1017.2
20240522090906 64 135 0.0 0.0 0.00 0.00 0.00 95 1017.2
20240522090402 64 188 0.0 0.0 0.00 0.00 0.00 95 1017.2
20240522085907 64 199 0.0 0.0 0.00 0.00 0.00 95 1017.2